sim
Sign-in with your pilot id or email,
or register
Callsign
Passwort

Schedule Details

Flight Number: DLH2699
Departure: Agadir Al Massira Airport (GMAD) at 12:00
Arrival: Munich Airport (EDDM) at 15:50
Route: Lufthansa Passenger Schedule. Enter filed route here before submitting Pirep.

Weather Information
Getting current METAR information for GMAD 262130Z 22010KT CAVOK 20/17 Q1014 NOSIG
Getting current METAR information for EDDM 262150Z 23016KT 9999 OVC022 07/03 Q1002 NOSIG

Schedule Frequency

Route Map